createdAt,value
2022-08-19T00:08:42.930Z,100172.22
2022-08-19T00:18:46.262Z,100187.03
2022-08-19T00:28:49.287Z,100163.69
2022-08-19T00:38:54.364Z,100170.03
2022-08-19T00:48:58.788Z,100177.28
2022-08-19T00:59:03.203Z,100180.53
2022-08-19T01:09:06.902Z,100187.62
2022-08-19T01:19:32.730Z,100155.41
2022-08-19T01:29:47.504Z,100197.81
2022-08-19T01:39:51.363Z,100171.75
2022-08-19T01:49:54.473Z,100185.19
2022-08-19T01:59:57.910Z,100190.72
2022-08-19T02:10:10.523Z,100164.69
2022-08-19T02:20:15.971Z,100165.97
2022-08-19T02:30:20.046Z,100131.97
2022-08-19T02:40:23.110Z,100146.97
2022-08-19T02:50:26.782Z,100108.94
2022-08-19T03:00:29.843Z,100138.97
2022-08-19T03:10:33.890Z,100142.66
2022-08-19T03:20:51.356Z,100154.53
2022-08-19T03:31:41.873Z,100176.78
2022-08-19T03:41:45.857Z,100182.81
2022-08-19T03:51:51.361Z,100183.16
2022-08-19T04:01:57.028Z,100192.97
2022-08-19T04:12:00.168Z,100218.72
2022-08-19T04:22:04.455Z,100253.97
2022-08-19T04:32:08.379Z,100255.97
2022-08-19T04:42:48.930Z,100229.91
2022-08-19T04:52:52.823Z,100223.37
2022-08-19T05:03:00.313Z,100246.59
2022-08-19T05:13:05.656Z,100241.28
2022-08-19T05:23:13.391Z,100241.47
2022-08-19T05:33:25.593Z,100242.81
2022-08-19T05:43:28.656Z,100246.31
2022-08-19T05:53:31.628Z,100268.53
2022-08-19T06:03:35.133Z,100236.09
2022-08-19T06:13:38.095Z,100242.06
2022-08-19T06:23:41.553Z,100246.22
2022-08-19T06:33:46.021Z,100260.47
2022-08-19T06:43:49.942Z,100270.19
2022-08-19T06:53:57.156Z,100288.16
2022-08-19T07:04:01.558Z,100295.72
2022-08-19T07:14:05.299Z,100276.59
2022-08-19T07:24:09.618Z,100279.84
2022-08-19T07:34:15.766Z,100281.09
2022-08-19T07:44:21.707Z,100289.44
2022-08-19T07:54:26.773Z,100282.72
2022-08-19T08:04:49.740Z,100273.72
2022-08-19T08:14:55.970Z,100272.97
2022-08-19T08:25:04.127Z,100270.81
2022-08-19T08:35:13.132Z,100266.25
2022-08-19T08:45:19.009Z,100266.00
2022-08-19T08:55:27.513Z,100256.03
2022-08-19T09:05:52.164Z,100259.88
2022-08-19T09:16:04.365Z,100224.66
2022-08-19T09:26:10.404Z,100240.22
2022-08-19T09:36:24.338Z,100229.44
2022-08-19T09:46:38.537Z,100244.72
2022-08-19T09:56:42.369Z,100234.22
2022-08-19T10:06:46.994Z,100237.44
2022-08-19T10:16:52.761Z,100214.41
2022-08-19T10:26:59.725Z,100204.62
2022-08-19T10:37:10.750Z,100177.34
2022-08-19T10:47:17.666Z,100163.53
2022-08-19T10:57:52.259Z,100155.84
2022-08-19T11:07:55.737Z,100143.06
2022-08-19T11:17:58.925Z,100153.41
2022-08-19T11:28:02.127Z,100111.28
2022-08-19T11:38:09.427Z,100143.09
2022-08-19T11:48:13.059Z,100143.38
2022-08-19T11:58:19.023Z,100130.75
2022-08-19T12:08:22.591Z,100126.38
2022-08-19T12:18:26.158Z,100116.50
2022-08-19T12:28:29.846Z,100120.59
2022-08-19T12:38:35.689Z,100067.22
2022-08-19T12:48:42.916Z,100087.66
2022-08-19T12:58:48.956Z,100066.91
2022-08-19T13:08:59.383Z,100064.22
2022-08-19T13:19:05.205Z,100064.50
2022-08-19T13:29:27.255Z,100060.91
2022-08-19T13:39:34.418Z,100049.94
2022-08-19T13:49:37.487Z,100039.84
2022-08-19T13:59:40.517Z,100023.91
2022-08-19T14:09:43.864Z,100036.03
2022-08-19T14:19:49.373Z,100025.78
2022-08-19T14:29:53.354Z,100015.72
2022-08-19T14:39:56.864Z,100020.53
2022-08-19T14:50:00.159Z,100011.03
2022-08-19T15:00:07.478Z,100012.50
2022-08-19T15:10:13.114Z,100000.25
2022-08-19T15:20:22.332Z,100004.84
2022-08-19T15:30:28.205Z,99990.75
2022-08-19T15:40:31.865Z,99989.03
2022-08-19T15:50:35.919Z,99979.47
2022-08-19T16:00:57.958Z,99959.62
2022-08-19T16:11:01.369Z,99938.84
2022-08-19T16:21:06.812Z,99960.59
2022-08-19T16:31:11.463Z,99947.09
2022-08-19T16:41:14.923Z,99954.03
2022-08-19T16:51:18.790Z,99963.59
2022-08-19T17:01:23.021Z,99949.06
2022-08-19T17:11:29.132Z,99956.91
2022-08-19T17:21:41.950Z,99967.91
2022-08-19T17:31:47.233Z,99961.81
2022-08-19T17:41:50.559Z,99964.72
2022-08-19T17:51:53.747Z,99962.97
2022-08-19T18:01:57.047Z,99968.34
2022-08-19T18:12:01.301Z,99978.25
2022-08-19T18:22:06.737Z,99991.91
2022-08-19T18:32:24.053Z,99988.66
2022-08-19T18:42:46.730Z,99982.06
2022-08-19T18:52:49.658Z,99986.78
2022-08-19T19:02:54.637Z,99980.66
2022-08-19T19:12:57.959Z,99974.81
2022-08-19T19:23:01.162Z,99973.84
2022-08-19T19:33:05.648Z,99984.84
2022-08-19T19:43:08.992Z,99989.81
2022-08-19T19:53:13.242Z,99990.59
2022-08-19T20:03:20.589Z,99995.63
2022-08-19T20:13:24.296Z,99975.41
2022-08-19T20:23:27.399Z,99999.59
2022-08-19T20:33:31.489Z,100024.34
2022-08-19T20:43:34.678Z,100013.22
2022-08-19T20:53:39.219Z,100030.69
2022-08-19T21:03:43.461Z,100034.03
2022-08-19T21:13:46.892Z,100030.72
2022-08-19T21:23:50.135Z,100030.03
2022-08-19T21:33:53.122Z,100054.25
2022-08-19T21:43:56.201Z,100048.19
2022-08-19T21:53:59.209Z,100022.91
2022-08-19T22:04:02.683Z,100038.16
2022-08-19T22:14:05.800Z,100046.72
2022-08-19T22:24:10.806Z,100043.87
2022-08-19T22:34:14.090Z,100053.94
2022-08-19T22:44:17.818Z,100067.78
2022-08-19T22:54:20.889Z,100071.88
2022-08-19T23:04:23.908Z,100077.81
2022-08-19T23:14:26.902Z,100085.47
2022-08-19T23:24:29.911Z,100069.66
2022-08-19T23:34:32.929Z,100051.06
2022-08-19T23:44:35.925Z,100032.69
2022-08-19T23:54:54.840Z,100037.00
